Cairns Airport

Airport
ICAO code: 
YBCS
IATA Code: 
CNS
Summary
ICAO Region: 
APAC
Territory: 
Location: 
Cairns, Queensland
Serving: 
Cairns
Elevation: 
10 ft
Coordinates: 
Aerial View: 
16° 52' 35.533" S, 145° 45' 14.544" E
Metar
Observation
YBCS 281130Z AUTO 32002KT 2800 +RA SCT016 BKN022 BKN038 25/24 Q1010
Station
Cairns Airport
Date/Time
2021-11-28 11:30:00
Wind direction
320°
Wind speed
02 kts
Lowest cloud amount
scattered clouds
Temperature
25°C
Dew point
24°C
Humidity
94%
QNH
1010 hPa
Weather condition
n/a

Description

Cairns Airport is an international airport in Cairns, Queensland, Australia.

Climatology

Humid “subtropical” climate (Köppen climate classification Cfa) - characterized by hot, humid summers and cool winters. Significant amounts of precipitation occur in all seasons in most areas. Most summer rainfall occurs during thunderstorms and occasional tropical storms.

Runways

Designator Length Width Surface Rops
12/30 925 18 ASP Yes/Yes
15/33 3197 45 ASP Yes/Yes
Airport map: 
Aerial View: 

SKYbrary Partners:

Safety knowledge contributed by: